createdAt,value
2022-10-28T00:00:29.139Z,28.88
2022-10-28T00:02:55.898Z,28.08
2022-10-28T00:05:22.749Z,27.35
2022-10-28T00:07:49.135Z,30.05
2022-10-28T00:10:15.763Z,29.35
2022-10-28T00:12:42.222Z,26.58
2022-10-28T00:15:09.117Z,23.83
2022-10-28T00:17:35.546Z,24.27
2022-10-28T00:20:01.993Z,23.65
2022-10-28T00:22:28.511Z,22.63
2022-10-28T00:24:54.924Z,23.50
2022-10-28T00:27:21.352Z,26.00
2022-10-28T00:29:47.750Z,25.77
2022-10-28T00:32:14.153Z,20.92
2022-10-28T00:34:40.563Z,17.85
2022-10-28T00:37:06.987Z,21.92
2022-10-28T00:39:33.411Z,21.38
2022-10-28T00:42:03.716Z,20.15
2022-10-28T00:44:53.440Z,18.13
2022-10-28T00:47:38.547Z,19.40
2022-10-28T00:50:20.749Z,18.95
2022-10-28T00:52:59.466Z,19.95
2022-10-28T00:55:26.134Z,18.08
2022-10-28T00:57:57.985Z,18.55
2022-10-28T01:00:25.962Z,20.20
2022-10-28T01:02:52.421Z,21.75
2022-10-28T01:05:26.849Z,20.02
2022-10-28T01:07:59.662Z,20.35
2022-10-28T01:10:54.377Z,21.30
2022-10-28T01:13:34.856Z,20.77
2022-10-28T01:16:18.565Z,17.67
2022-10-28T01:19:14.669Z,21.13
2022-10-28T01:22:18.507Z,19.42
2022-10-28T01:25:07.522Z,19.38
2022-10-28T01:27:52.165Z,21.40
2022-10-28T01:30:21.234Z,22.90
2022-10-28T01:33:19.608Z,21.65
2022-10-28T01:35:55.881Z,21.92
2022-10-28T01:38:40.972Z,20.13
2022-10-28T01:41:15.973Z,23.10
2022-10-28T01:44:01.088Z,21.27
2022-10-28T01:47:01.637Z,19.23
2022-10-28T01:49:42.595Z,20.98
2022-10-28T01:52:17.117Z,19.52
2022-10-28T01:54:48.649Z,15.95
2022-10-28T01:57:18.154Z,17.50
2022-10-28T01:59:47.141Z,22.08
2022-10-28T02:02:15.829Z,21.70
2022-10-28T02:04:42.274Z,23.50
2022-10-28T02:07:08.876Z,22.98
2022-10-28T02:10:01.986Z,24.40
2022-10-28T02:12:37.745Z,22.23
2022-10-28T02:15:25.781Z,24.20
2022-10-28T02:18:12.436Z,21.10
2022-10-28T02:20:48.678Z,24.33
2022-10-28T02:23:33.210Z,24.38
2022-10-28T02:26:03.599Z,23.95
2022-10-28T02:28:41.017Z,25.40
2022-10-28T02:31:11.124Z,24.90
2022-10-28T02:33:39.554Z,24.92
2022-10-28T02:36:18.497Z,22.08
2022-10-28T02:38:58.112Z,22.30
2022-10-28T02:41:27.639Z,21.17
2022-10-28T02:43:59.254Z,21.17
2022-10-28T02:46:29.876Z,20.05
2022-10-28T02:49:08.781Z,20.48
2022-10-28T02:51:40.440Z,19.35
2022-10-28T02:54:24.476Z,19.20
2022-10-28T02:57:17.375Z,17.10
2022-10-28T02:59:43.922Z,19.30
2022-10-28T03:02:10.480Z,18.70
2022-10-28T03:04:36.997Z,20.75
2022-10-28T03:07:03.483Z,19.08
2022-10-28T03:09:30.004Z,19.10
2022-10-28T03:11:56.466Z,18.92
2022-10-28T03:14:23.078Z,18.90
2022-10-28T03:16:49.604Z,19.77
2022-10-28T03:19:16.046Z,17.55
2022-10-28T03:21:42.539Z,18.77
2022-10-28T03:24:09.058Z,18.15
2022-10-28T03:26:35.537Z,16.55
2022-10-28T03:29:03.230Z,20.10
2022-10-28T03:31:29.736Z,18.92
2022-10-28T03:33:56.402Z,18.23
2022-10-28T03:36:22.922Z,17.50
2022-10-28T03:38:49.405Z,18.65
2022-10-28T03:41:15.912Z,18.30
2022-10-28T03:43:42.372Z,19.45
2022-10-28T03:46:08.864Z,19.50
2022-10-28T03:48:35.347Z,17.80
2022-10-28T03:51:01.847Z,16.70
2022-10-28T03:53:31.163Z,17.17
2022-10-28T03:56:02.615Z,16.35
2022-10-28T03:58:29.380Z,18.08
2022-10-28T04:00:56.759Z,16.17
2022-10-28T04:03:25.490Z,17.67
2022-10-28T04:05:52.166Z,16.05
2022-10-28T04:08:19.878Z,16.98
2022-10-28T04:10:47.666Z,16.48
2022-10-28T04:13:15.424Z,16.45
2022-10-28T04:15:42.015Z,13.77
2022-10-28T04:18:08.569Z,16.35
2022-10-28T04:20:35.378Z,14.45
2022-10-28T04:23:02.160Z,15.70
2022-10-28T04:25:29.268Z,15.02
2022-10-28T04:27:56.028Z,12.75
2022-10-28T04:30:22.888Z,13.15
2022-10-28T04:32:49.412Z,12.07
2022-10-28T04:35:16.213Z,10.68
2022-10-28T04:37:42.682Z,12.15
2022-10-28T04:40:09.763Z,9.88
2022-10-28T04:42:36.174Z,11.18
2022-10-28T04:45:02.660Z,11.75
2022-10-28T04:47:29.086Z,11.90
2022-10-28T04:49:55.504Z,11.15
2022-10-28T04:52:21.980Z,11.85
2022-10-28T04:54:48.399Z,12.32
2022-10-28T04:57:14.842Z,12.32
2022-10-28T04:59:41.267Z,12.60
2022-10-28T05:02:07.937Z,12.45
2022-10-28T05:04:34.416Z,13.80
2022-10-28T05:07:00.831Z,14.27
2022-10-28T05:09:27.235Z,14.18
2022-10-28T05:11:54.342Z,15.05
2022-10-28T05:14:20.814Z,17.20
2022-10-28T05:16:47.220Z,15.82
2022-10-28T05:19:13.657Z,16.52
2022-10-28T05:22:01.954Z,16.05
2022-10-28T05:24:28.509Z,15.00
2022-10-28T05:26:54.947Z,15.98
2022-10-28T05:29:21.399Z,16.27
2022-10-28T05:31:47.850Z,16.92
2022-10-28T05:34:14.259Z,15.10
2022-10-28T05:36:40.656Z,15.77
2022-10-28T05:39:07.052Z,19.33
2022-10-28T05:41:38.467Z,15.73
2022-10-28T05:44:05.736Z,15.95
2022-10-28T05:46:32.110Z,15.18
2022-10-28T05:48:58.526Z,15.65
2022-10-28T05:51:24.991Z,17.08
2022-10-28T05:53:51.495Z,17.27
2022-10-28T05:56:18.529Z,17.63
2022-10-28T05:58:45.017Z,18.33
2022-10-28T06:01:11.566Z,17.50
2022-10-28T06:03:38.124Z,18.27
2022-10-28T06:06:04.691Z,16.77
2022-10-28T06:08:31.342Z,18.15
2022-10-28T06:10:56.511Z,16.90
2022-10-28T06:13:23.010Z,16.67
2022-10-28T06:15:54.059Z,17.88
2022-10-28T06:18:21.202Z,17.50
2022-10-28T06:20:57.977Z,17.35
2022-10-28T06:23:25.650Z,16.98
2022-10-28T06:28:24.237Z,18.05
2022-10-28T06:30:51.040Z,17.83
2022-10-28T06:33:17.589Z,17.45
2022-10-28T06:35:44.009Z,16.95
2022-10-28T06:38:10.434Z,16.42
2022-10-28T06:40:36.875Z,16.80
2022-10-28T06:43:05.769Z,17.70
2022-10-28T06:45:33.367Z,16.85
2022-10-28T06:48:03.591Z,14.35
2022-10-28T06:50:32.276Z,15.45
2022-10-28T06:52:59.197Z,16.15
2022-10-28T06:55:27.078Z,15.85
2022-10-28T06:57:54.380Z,17.17
2022-10-28T07:00:21.329Z,15.30
2022-10-28T07:02:55.159Z,15.30
2022-10-28T07:05:23.879Z,15.00
2022-10-28T07:07:50.309Z,15.65
2022-10-28T07:10:16.799Z,16.00
2022-10-28T07:12:43.210Z,15.18
2022-10-28T07:15:10.163Z,15.02
2022-10-28T07:17:36.894Z,15.27
2022-10-28T07:20:03.998Z,17.30
2022-10-28T07:22:30.447Z,15.40
2022-10-28T07:24:56.869Z,18.10
2022-10-28T07:27:23.287Z,18.25
2022-10-28T07:29:49.697Z,17.52
2022-10-28T07:32:16.122Z,19.23
2022-10-28T07:34:42.621Z,20.52
2022-10-28T07:37:11.076Z,20.30
2022-10-28T07:39:38.182Z,19.02
2022-10-28T07:42:04.636Z,20.23
2022-10-28T07:44:31.034Z,21.05
2022-10-28T07:46:58.358Z,20.52
2022-10-28T07:49:28.074Z,20.20
2022-10-28T07:51:54.534Z,23.25
2022-10-28T07:54:21.059Z,20.27
2022-10-28T07:56:47.760Z,22.17
2022-10-28T07:59:14.236Z,21.23
2022-10-28T08:01:40.841Z,20.45
2022-10-28T08:04:07.417Z,22.55
2022-10-28T08:06:35.056Z,22.67
2022-10-28T08:09:02.146Z,26.63
2022-10-28T08:11:28.711Z,22.45
2022-10-28T08:13:55.875Z,20.42
2022-10-28T08:16:22.305Z,21.08
2022-10-28T08:18:48.863Z,20.02
2022-10-28T08:21:15.532Z,21.10
2022-10-28T08:23:46.388Z,21.00
2022-10-28T08:26:14.533Z,23.05
2022-10-28T08:28:40.948Z,19.73
2022-10-28T08:31:12.186Z,24.45
2022-10-28T08:36:07.573Z,20.20
2022-10-28T08:38:34.044Z,22.70
2022-10-28T08:41:08.107Z,21.48
2022-10-28T08:43:56.720Z,21.60
2022-10-28T08:46:49.848Z,19.67
2022-10-28T08:49:20.419Z,18.02
2022-10-28T08:52:02.436Z,21.15
2022-10-28T08:54:36.059Z,20.15
2022-10-28T08:57:06.053Z,21.85
2022-10-28T08:59:37.664Z,20.20
2022-10-28T09:02:24.468Z,21.23
2022-10-28T09:05:07.851Z,19.38
2022-10-28T09:07:37.046Z,19.27
2022-10-28T09:10:05.081Z,21.63
2022-10-28T09:13:07.044Z,21.35
2022-10-28T09:16:04.972Z,17.98
2022-10-28T09:18:51.328Z,19.42
2022-10-28T09:21:26.540Z,19.13
2022-10-28T09:23:58.757Z,16.90
2022-10-28T09:26:57.359Z,18.35
2022-10-28T09:29:32.668Z,17.70
2022-10-28T09:32:14.315Z,16.67
2022-10-28T09:35:06.295Z,19.75
2022-10-28T09:37:41.258Z,17.63
2022-10-28T09:40:19.797Z,17.13
2022-10-28T09:43:06.791Z,17.83
2022-10-28T09:45:37.534Z,16.63
2022-10-28T09:48:19.158Z,20.08
2022-10-28T09:50:45.956Z,17.73
2022-10-28T09:53:26.409Z,16.90
2022-10-28T09:55:52.971Z,19.75
2022-10-28T09:58:19.555Z,19.00
2022-10-28T10:01:32.979Z,18.98
2022-10-28T10:03:59.621Z,18.77
2022-10-28T10:06:32.092Z,22.38
2022-10-28T10:09:00.259Z,21.13
2022-10-28T10:11:26.591Z,20.25
2022-10-28T10:13:55.009Z,18.50
2022-10-28T10:16:34.718Z,18.23
2022-10-28T10:19:03.387Z,21.55
2022-10-28T10:21:52.833Z,20.85
2022-10-28T10:24:31.241Z,21.20
2022-10-28T10:27:19.883Z,18.25
2022-10-28T10:29:52.254Z,20.73
2022-10-28T10:32:18.610Z,19.83
2022-10-28T10:34:51.227Z,19.95
2022-10-28T10:37:22.720Z,20.00
2022-10-28T10:40:06.550Z,18.20
2022-10-28T10:42:39.136Z,20.20
2022-10-28T10:45:16.024Z,19.08
2022-10-28T10:47:43.044Z,18.83
2022-10-28T10:53:01.855Z,19.45
2022-10-28T10:55:28.202Z,20.48
2022-10-28T10:57:55.775Z,17.80
2022-10-28T11:00:25.450Z,18.40
2022-10-28T11:02:55.055Z,18.17
2022-10-28T11:05:27.145Z,19.73
2022-10-28T11:08:04.868Z,18.80
2022-10-28T11:10:34.412Z,19.55
2022-10-28T11:13:25.311Z,18.65
2022-10-28T11:16:02.671Z,22.70
2022-10-28T11:18:38.765Z,19.00
2022-10-28T11:21:12.142Z,18.20
2022-10-28T11:23:46.472Z,18.95
2022-10-28T11:26:16.038Z,18.38
2022-10-28T11:29:09.862Z,20.95
2022-10-28T11:31:46.201Z,19.55
2022-10-28T11:34:31.256Z,18.58
2022-10-28T11:37:09.462Z,18.23
2022-10-28T11:40:03.428Z,20.60
2022-10-28T11:42:51.409Z,18.83
2022-10-28T11:45:31.295Z,18.83
2022-10-28T11:48:04.679Z,19.55
2022-10-28T11:51:00.892Z,19.90
2022-10-28T11:53:56.347Z,19.48
2022-10-28T11:56:47.588Z,20.35
2022-10-28T11:59:29.236Z,20.63
2022-10-28T12:02:10.929Z,20.10
2022-10-28T12:04:57.653Z,20.02
2022-10-28T12:08:05.620Z,19.40
2022-10-28T12:10:40.135Z,20.20
2022-10-28T12:13:20.741Z,20.02
2022-10-28T12:16:11.755Z,21.63
2022-10-28T12:24:17.345Z,21.00
2022-10-28T12:26:51.094Z,21.67
2022-10-28T12:29:20.449Z,22.40
2022-10-28T12:32:01.411Z,21.55
2022-10-28T12:37:11.506Z,21.65
2022-10-28T12:40:01.588Z,20.58
2022-10-28T12:42:34.045Z,19.85
2022-10-28T12:45:04.359Z,21.08
2022-10-28T12:47:51.081Z,24.95
2022-10-28T12:50:25.536Z,25.40
2022-10-28T12:52:59.696Z,19.70
2022-10-28T12:55:33.439Z,20.88
2022-10-28T12:58:06.080Z,19.42
2022-10-28T13:00:37.809Z,22.20
2022-10-28T13:03:07.783Z,23.10
2022-10-28T13:05:47.472Z,20.60
2022-10-28T13:08:29.810Z,21.58
2022-10-28T13:11:28.208Z,20.58
2022-10-28T13:14:38.952Z,21.60
2022-10-28T13:17:28.413Z,22.40
2022-10-28T13:20:03.908Z,21.63
2022-10-28T13:22:46.673Z,20.92
2022-10-28T13:25:22.057Z,19.33
2022-10-28T13:27:58.232Z,18.10
2022-10-28T13:30:25.899Z,20.25
2022-10-28T13:33:03.503Z,19.13
2022-10-28T13:35:30.915Z,19.92
2022-10-28T13:37:59.803Z,18.98
2022-10-28T13:40:31.911Z,20.10
2022-10-28T13:43:00.472Z,20.27
2022-10-28T13:45:55.701Z,17.83
2022-10-28T13:48:28.249Z,22.35
2022-10-28T13:51:20.930Z,20.88
2022-10-28T13:53:47.478Z,23.08
2022-10-28T13:56:35.846Z,21.67
2022-10-28T13:59:14.520Z,19.90
2022-10-28T14:01:56.518Z,20.98
2022-10-28T14:04:38.218Z,20.50
2022-10-28T14:07:10.550Z,21.85
2022-10-28T14:09:39.774Z,21.88
2022-10-28T14:12:17.395Z,20.55
2022-10-28T14:14:51.942Z,22.77
2022-10-28T14:17:22.473Z,19.55
2022-10-28T14:19:52.654Z,19.05
2022-10-28T14:22:36.587Z,21.40
2022-10-28T14:25:46.083Z,17.60
2022-10-28T14:28:27.545Z,18.15
2022-10-28T14:31:08.980Z,18.70
2022-10-28T14:33:44.303Z,19.15
2022-10-28T14:36:19.540Z,19.00
2022-10-28T14:39:06.794Z,18.30
2022-10-28T14:41:36.389Z,19.08
2022-10-28T14:44:33.190Z,16.80
2022-10-28T14:47:49.118Z,18.65
2022-10-28T14:50:29.267Z,16.20
2022-10-28T14:52:56.725Z,18.77
2022-10-28T14:55:30.884Z,18.33
2022-10-28T14:58:20.361Z,17.48
2022-10-28T15:01:01.964Z,18.58
2022-10-28T15:03:28.923Z,18.00
2022-10-28T15:05:55.922Z,18.27
2022-10-28T15:08:24.259Z,19.23
2022-10-28T15:10:50.968Z,16.90
2022-10-28T15:13:19.207Z,18.75
2022-10-28T15:15:54.393Z,17.40
2022-10-28T15:18:23.699Z,19.25
2022-10-28T15:20:50.245Z,17.40
2022-10-28T15:23:22.220Z,18.20
2022-10-28T15:26:18.902Z,17.85
2022-10-28T15:28:45.575Z,17.50
2022-10-28T15:31:12.004Z,17.00
2022-10-28T15:33:40.577Z,17.33
2022-10-28T15:36:19.758Z,18.95
2022-10-28T15:39:07.238Z,19.88
2022-10-28T15:41:45.458Z,15.70
2022-10-28T15:44:25.726Z,18.85
2022-10-28T15:46:53.116Z,17.35
2022-10-28T15:49:35.901Z,17.55
2022-10-28T15:52:17.352Z,17.90
2022-10-28T15:54:54.584Z,20.38
2022-10-28T15:57:23.193Z,19.67
2022-10-28T16:00:09.568Z,21.48
2022-10-28T16:02:41.178Z,23.23
2022-10-28T16:05:42.414Z,20.10
2022-10-28T16:11:13.562Z,21.50
2022-10-28T16:13:47.161Z,22.40
2022-10-28T16:16:28.041Z,22.30
2022-10-28T16:19:20.339Z,19.08
2022-10-28T16:21:46.745Z,19.73
2022-10-28T16:24:13.259Z,19.20
2022-10-28T16:26:39.669Z,22.75
2022-10-28T16:29:06.099Z,23.35
2022-10-28T16:31:32.568Z,21.90
2022-10-28T16:33:59.721Z,22.38
2022-10-28T16:36:28.179Z,20.10
2022-10-28T16:38:54.738Z,23.15
2022-10-28T16:41:21.309Z,22.45
2022-10-28T16:43:47.739Z,21.70
2022-10-28T16:46:14.731Z,23.73
2022-10-28T16:48:41.270Z,22.67
2022-10-28T16:51:25.915Z,29.35
2022-10-28T16:53:52.365Z,24.55
2022-10-28T16:56:18.815Z,21.55
2022-10-28T16:58:46.178Z,22.17
2022-10-28T17:01:17.764Z,22.30
2022-10-28T17:03:44.317Z,21.77
2022-10-28T17:06:10.728Z,25.70
2022-10-28T17:09:01.219Z,20.48
2022-10-28T17:11:24.041Z,20.92
2022-10-28T17:13:50.560Z,22.15
2022-10-28T17:16:16.975Z,22.30
2022-10-28T17:18:44.182Z,22.83
2022-10-28T17:21:10.682Z,20.95
2022-10-28T17:23:39.561Z,22.90
2022-10-28T17:26:06.050Z,21.55
2022-10-28T17:28:32.549Z,20.92
2022-10-28T17:31:04.476Z,23.85
2022-10-28T17:33:31.044Z,23.17
2022-10-28T17:36:05.350Z,23.02
2022-10-28T17:38:31.910Z,23.55
2022-10-28T17:40:58.304Z,22.77
2022-10-28T17:43:24.850Z,23.88
2022-10-28T17:45:51.658Z,25.33
2022-10-28T17:48:18.114Z,23.45
2022-10-28T17:50:45.161Z,24.75
2022-10-28T17:53:11.804Z,22.73
2022-10-28T17:55:38.361Z,27.60
2022-10-28T17:58:04.933Z,30.92
2022-10-28T18:00:31.363Z,27.35
2022-10-28T18:02:57.885Z,25.10
2022-10-28T18:05:24.562Z,22.42
2022-10-28T18:07:55.208Z,26.08
2022-10-28T18:10:21.925Z,28.27
2022-10-28T18:12:51.355Z,25.25
2022-10-28T18:15:17.954Z,32.45
2022-10-28T18:17:49.198Z,30.15
2022-10-28T18:20:15.755Z,23.40
2022-10-28T18:22:42.199Z,22.77
2022-10-28T18:25:08.921Z,23.58
2022-10-28T18:27:35.762Z,24.70
2022-10-28T18:30:02.252Z,25.20
2022-10-28T18:32:28.681Z,23.38
2022-10-28T18:34:55.123Z,25.13
2022-10-28T18:37:21.960Z,25.35
2022-10-28T18:39:49.209Z,24.77
2022-10-28T18:42:19.266Z,25.95
2022-10-28T18:44:48.271Z,26.50
2022-10-28T18:47:14.740Z,29.48
2022-10-28T18:49:41.556Z,25.67
2022-10-28T18:52:08.014Z,23.95
2022-10-28T18:54:34.466Z,26.52
2022-10-28T18:57:00.886Z,25.33
2022-10-28T18:59:27.306Z,26.13
2022-10-28T19:01:53.857Z,26.05
2022-10-28T19:04:20.398Z,25.25
2022-10-28T19:06:46.863Z,23.75
2022-10-28T19:09:13.457Z,25.05
2022-10-28T19:11:39.863Z,24.48
2022-10-28T19:14:06.668Z,24.65
2022-10-28T19:16:34.312Z,24.92
2022-10-28T19:19:02.645Z,27.00
2022-10-28T19:21:29.407Z,25.05
2022-10-28T19:23:56.060Z,24.75
2022-10-28T19:26:23.117Z,26.23
2022-10-28T19:28:50.351Z,25.38
2022-10-28T19:31:19.533Z,25.48
2022-10-28T19:33:46.011Z,27.17
2022-10-28T19:36:22.952Z,26.13
2022-10-28T19:38:51.121Z,28.33
2022-10-28T19:41:19.329Z,35.08
2022-10-28T19:43:46.247Z,33.05
2022-10-28T19:46:20.215Z,32.85
2022-10-28T19:48:48.877Z,32.00
2022-10-28T19:51:18.364Z,34.22
2022-10-28T19:53:48.787Z,32.55
2022-10-28T19:56:18.906Z,29.42
2022-10-28T19:58:46.961Z,33.42
2022-10-28T20:01:14.339Z,32.40
2022-10-28T20:03:44.993Z,29.95
2022-10-28T20:06:15.591Z,31.27
2022-10-28T20:08:46.502Z,26.98
2022-10-28T20:11:15.658Z,24.67
2022-10-28T20:13:42.333Z,26.70
2022-10-28T20:16:13.685Z,25.35
2022-10-28T20:18:41.011Z,25.92
2022-10-28T20:21:11.590Z,24.70
2022-10-28T20:23:38.580Z,25.27
2022-10-28T20:26:06.020Z,26.48
2022-10-28T20:28:33.247Z,26.13
2022-10-28T20:31:10.128Z,26.85
2022-10-28T20:33:39.165Z,29.80
2022-10-28T20:36:07.410Z,27.77
2022-10-28T20:38:34.092Z,26.20
2022-10-28T20:41:01.200Z,29.20
2022-10-28T20:43:29.502Z,28.23
2022-10-28T20:46:00.611Z,27.48
2022-10-28T20:51:00.261Z,25.92
2022-10-28T20:53:28.659Z,26.67
2022-10-28T20:55:56.416Z,26.15
2022-10-28T20:58:25.087Z,23.98
2022-10-28T21:00:55.082Z,25.00
2022-10-28T21:03:22.055Z,24.85
2022-10-28T21:05:48.712Z,29.63
2022-10-28T21:08:15.152Z,25.83
2022-10-28T21:10:41.593Z,25.25
2022-10-28T21:13:08.156Z,25.75
2022-10-28T21:15:39.881Z,25.15
2022-10-28T21:18:07.446Z,26.00
2022-10-28T21:20:38.688Z,26.20
2022-10-28T21:23:06.116Z,25.15
2022-10-28T21:25:33.230Z,25.92
2022-10-28T21:28:00.361Z,26.05
2022-10-28T21:30:28.102Z,26.27
2022-10-28T21:32:55.082Z,26.48
2022-10-28T21:35:21.864Z,24.83
2022-10-28T21:37:48.339Z,24.58
2022-10-28T21:40:14.982Z,27.45
2022-10-28T21:42:48.162Z,29.02
2022-10-28T21:45:14.644Z,25.75
2022-10-28T21:47:41.113Z,24.30
2022-10-28T21:50:07.835Z,27.90
2022-10-28T21:52:34.243Z,26.77
2022-10-28T21:55:06.023Z,27.42
2022-10-28T21:57:41.120Z,25.73
2022-10-28T22:00:08.190Z,27.05
2022-10-28T22:02:34.718Z,27.27
2022-10-28T22:05:01.264Z,25.02
2022-10-28T22:07:27.693Z,30.08
2022-10-28T22:09:54.090Z,23.85
2022-10-28T22:12:20.533Z,25.15
2022-10-28T22:14:46.972Z,22.25
2022-10-28T22:17:13.764Z,25.77
2022-10-28T22:19:40.227Z,27.52
2022-10-28T22:22:06.671Z,25.48
2022-10-28T22:24:33.130Z,23.25
2022-10-28T22:26:59.519Z,25.85
2022-10-28T22:29:25.915Z,24.90
2022-10-28T22:31:52.302Z,25.92
2022-10-28T22:34:18.728Z,23.10
2022-10-28T22:36:47.560Z,23.38
2022-10-28T22:39:14.011Z,25.25
2022-10-28T22:41:40.465Z,26.02
2022-10-28T22:44:07.565Z,24.70
2022-10-28T22:46:36.488Z,25.85
2022-10-28T22:49:03.941Z,23.75
2022-10-28T22:51:30.414Z,23.52
2022-10-28T22:53:57.106Z,26.90
2022-10-28T22:56:25.059Z,23.77
2022-10-28T22:59:01.472Z,22.83
2022-10-28T23:01:29.373Z,24.10
2022-10-28T23:03:56.097Z,23.38
2022-10-28T23:06:24.675Z,22.13
2022-10-28T23:08:52.851Z,22.95
2022-10-28T23:11:20.931Z,23.42
2022-10-28T23:13:52.310Z,24.05
2022-10-28T23:16:19.487Z,25.73
2022-10-28T23:18:45.920Z,23.77
2022-10-28T23:21:18.230Z,23.63
2022-10-28T23:23:51.280Z,24.92
2022-10-28T23:26:20.571Z,24.85
2022-10-28T23:28:51.608Z,25.38
2022-10-28T23:31:18.392Z,28.00
2022-10-28T23:33:44.834Z,24.75
2022-10-28T23:36:13.457Z,24.58
2022-10-28T23:38:40.102Z,25.05
2022-10-28T23:41:09.667Z,22.10
2022-10-28T23:43:36.198Z,24.42
2022-10-28T23:46:02.595Z,24.50
2022-10-28T23:48:29.363Z,25.67
2022-10-28T23:50:56.044Z,26.45
2022-10-28T23:53:23.254Z,24.80
2022-10-28T23:55:50.635Z,23.83
2022-10-28T23:58:18.795Z,25.05
